sensor_id;sensor_type;location;lat;lon;timestamp;P1;durP1;ratioP1;P2;durP2;ratioP2
40256;SDS011;25977;45.462;9.210;2023-05-07T00:01:58;26.30;;;18.90;;
40256;SDS011;25977;45.462;9.210;2023-05-07T00:04:23;25.20;;;17.45;;
40256;SDS011;25977;45.462;9.210;2023-05-07T00:06:49;22.83;;;18.45;;
40256;SDS011;25977;45.462;9.210;2023-05-07T00:09:15;26.17;;;18.98;;
40256;SDS011;25977;45.462;9.210;2023-05-07T00:11:41;27.33;;;18.52;;
40256;SDS011;25977;45.462;9.210;2023-05-07T00:14:07;25.08;;;17.58;;
40256;SDS011;25977;45.462;9.210;2023-05-07T00:16:32;25.55;;;18.35;;
40256;SDS011;25977;45.462;9.210;2023-05-07T00:18:58;29.48;;;19.00;;
40256;SDS011;25977;45.462;9.210;2023-05-07T00:21:24;23.88;;;17.13;;
40256;SDS011;25977;45.462;9.210;2023-05-07T00:23:52;21.20;;;16.33;;
40256;SDS011;25977;45.462;9.210;2023-05-07T00:26:18;21.00;;;17.40;;
40256;SDS011;25977;45.462;9.210;2023-05-07T00:28:47;23.58;;;18.23;;
40256;SDS011;25977;45.462;9.210;2023-05-07T00:31:12;22.45;;;17.20;;
40256;SDS011;25977;45.462;9.210;2023-05-07T00:33:38;20.13;;;16.10;;
40256;SDS011;25977;45.462;9.210;2023-05-07T00:36:04;12.65;;;9.38;;
40256;SDS011;25977;45.462;9.210;2023-05-07T00:38:30;9.18;;;7.45;;
40256;SDS011;25977;45.462;9.210;2023-05-07T00:40:55;4.78;;;4.38;;
40256;SDS011;25977;45.462;9.210;2023-05-07T00:43:21;4.53;;;4.07;;
40256;SDS011;25977;45.462;9.210;2023-05-07T00:45:47;2.95;;;2.72;;
40256;SDS011;25977;45.462;9.210;2023-05-07T00:48:13;4.80;;;2.22;;
40256;SDS011;25977;45.462;9.210;2023-05-07T00:50:38;2.35;;;2.15;;
40256;SDS011;25977;45.462;9.210;2023-05-07T00:53:04;2.67;;;1.90;;
40256;SDS011;25977;45.462;9.210;2023-05-07T00:55:31;1.80;;;1.70;;
40256;SDS011;25977;45.462;9.210;2023-05-07T00:57:57;3.17;;;1.80;;
40256;SDS011;25977;45.462;9.210;2023-05-07T01:00:23;2.00;;;1.90;;
40256;SDS011;25977;45.462;9.210;2023-05-07T01:02:50;1.83;;;1.70;;
40256;SDS011;25977;45.462;9.210;2023-05-07T01:05:16;2.33;;;2.13;;
40256;SDS011;25977;45.462;9.210;2023-05-07T01:07:44;3.10;;;1.85;;
40256;SDS011;25977;45.462;9.210;2023-05-07T01:10:10;4.32;;;2.72;;
40256;SDS011;25977;45.462;9.210;2023-05-07T01:12:37;2.60;;;2.38;;
40256;SDS011;25977;45.462;9.210;2023-05-07T01:15:04;3.90;;;2.08;;
40256;SDS011;25977;45.462;9.210;2023-05-07T01:17:33;2.42;;;2.17;;
40256;SDS011;25977;45.462;9.210;2023-05-07T01:20:06;4.13;;;3.75;;
40256;SDS011;25977;45.462;9.210;2023-05-07T01:22:39;4.72;;;3.95;;
40256;SDS011;25977;45.462;9.210;2023-05-07T01:25:06;4.80;;;4.22;;
40256;SDS011;25977;45.462;9.210;2023-05-07T01:27:33;5.05;;;4.60;;
40256;SDS011;25977;45.462;9.210;2023-05-07T01:30:00;6.97;;;5.13;;
40256;SDS011;25977;45.462;9.210;2023-05-07T01:32:36;6.18;;;5.68;;
40256;SDS011;25977;45.462;9.210;2023-05-07T01:35:05;7.43;;;5.78;;
40256;SDS011;25977;45.462;9.210;2023-05-07T01:37:35;5.55;;;4.60;;
40256;SDS011;25977;45.462;9.210;2023-05-07T01:40:01;6.20;;;4.43;;
40256;SDS011;25977;45.462;9.210;2023-05-07T01:42:28;4.72;;;4.13;;
40256;SDS011;25977;45.462;9.210;2023-05-07T01:44:54;5.22;;;4.00;;
40256;SDS011;25977;45.462;9.210;2023-05-07T01:47:20;3.95;;;3.53;;
40256;SDS011;25977;45.462;9.210;2023-05-07T01:49:47;5.93;;;3.85;;
40256;SDS011;25977;45.462;9.210;2023-05-07T01:52:13;3.35;;;2.95;;
40256;SDS011;25977;45.462;9.210;2023-05-07T01:54:39;2.80;;;2.60;;
40256;SDS011;25977;45.462;9.210;2023-05-07T01:57:04;2.78;;;2.58;;
40256;SDS011;25977;45.462;9.210;2023-05-07T01:59:30;3.72;;;2.38;;
40256;SDS011;25977;45.462;9.210;2023-05-07T02:01:56;2.42;;;1.98;;
40256;SDS011;25977;45.462;9.210;2023-05-07T02:04:22;3.05;;;2.70;;
40256;SDS011;25977;45.462;9.210;2023-05-07T02:06:49;2.50;;;2.25;;
40256;SDS011;25977;45.462;9.210;2023-05-07T02:09:15;1.65;;;1.55;;
40256;SDS011;25977;45.462;9.210;2023-05-07T02:11:43;1.67;;;1.58;;
40256;SDS011;25977;45.462;9.210;2023-05-07T02:14:12;1.70;;;1.60;;
40256;SDS011;25977;45.462;9.210;2023-05-07T02:16:37;2.15;;;1.63;;
40256;SDS011;25977;45.462;9.210;2023-05-07T02:19:03;1.17;;;1.17;;
40256;SDS011;25977;45.462;9.210;2023-05-07T02:21:30;1.13;;;1.05;;
40256;SDS011;25977;45.462;9.210;2023-05-07T02:23:56;0.80;;;0.80;;
40256;SDS011;25977;45.462;9.210;2023-05-07T02:26:21;1.17;;;1.08;;
40256;SDS011;25977;45.462;9.210;2023-05-07T02:28:47;1.02;;;1.02;;
40256;SDS011;25977;45.462;9.210;2023-05-07T02:31:13;1.00;;;1.00;;
40256;SDS011;25977;45.462;9.210;2023-05-07T02:33:39;2.17;;;0.90;;
40256;SDS011;25977;45.462;9.210;2023-05-07T02:36:11;7.45;;;2.65;;
40256;SDS011;25977;45.462;9.210;2023-05-07T02:38:46;1.25;;;0.80;;
40256;SDS011;25977;45.462;9.210;2023-05-07T02:41:12;4.97;;;0.93;;
40256;SDS011;25977;45.462;9.210;2023-05-07T02:43:38;1.00;;;1.00;;
40256;SDS011;25977;45.462;9.210;2023-05-07T02:46:07;0.93;;;0.88;;
40256;SDS011;25977;45.462;9.210;2023-05-07T02:48:37;1.35;;;0.82;;
40256;SDS011;25977;45.462;9.210;2023-05-07T02:51:03;1.08;;;0.93;;
40256;SDS011;25977;45.462;9.210;2023-05-07T02:53:31;0.68;;;0.68;;
40256;SDS011;25977;45.462;9.210;2023-05-07T02:55:57;1.95;;;0.68;;
40256;SDS011;25977;45.462;9.210;2023-05-07T02:58:24;0.80;;;0.77;;
40256;SDS011;25977;45.462;9.210;2023-05-07T03:00:50;1.75;;;0.98;;
40256;SDS011;25977;45.462;9.210;2023-05-07T03:03:38;0.55;;;0.55;;
40256;SDS011;25977;45.462;9.210;2023-05-07T03:06:04;0.73;;;0.73;;
40256;SDS011;25977;45.462;9.210;2023-05-07T03:08:29;1.08;;;0.52;;
40256;SDS011;25977;45.462;9.210;2023-05-07T03:10:55;0.70;;;0.70;;
40256;SDS011;25977;45.462;9.210;2023-05-07T03:13:21;0.93;;;0.82;;
40256;SDS011;25977;45.462;9.210;2023-05-07T03:15:47;0.98;;;0.82;;
40256;SDS011;25977;45.462;9.210;2023-05-07T03:18:13;1.75;;;0.77;;
40256;SDS011;25977;45.462;9.210;2023-05-07T03:20:39;0.73;;;0.73;;
40256;SDS011;25977;45.462;9.210;2023-05-07T03:23:05;0.82;;;0.82;;
40256;SDS011;25977;45.462;9.210;2023-05-07T03:25:31;0.95;;;0.95;;
40256;SDS011;25977;45.462;9.210;2023-05-07T03:27:57;2.38;;;0.70;;
40256;SDS011;25977;45.462;9.210;2023-05-07T03:30:28;0.55;;;0.55;;
40256;SDS011;25977;45.462;9.210;2023-05-07T03:32:54;0.60;;;0.60;;
40256;SDS011;25977;45.462;9.210;2023-05-07T03:35:20;0.85;;;0.65;;
40256;SDS011;25977;45.462;9.210;2023-05-07T03:37:45;1.38;;;1.27;;
40256;SDS011;25977;45.462;9.210;2023-05-07T03:40:12;1.23;;;0.93;;
40256;SDS011;25977;45.462;9.210;2023-05-07T03:42:51;0.93;;;0.93;;
40256;SDS011;25977;45.462;9.210;2023-05-07T03:45:19;0.80;;;0.80;;
40256;SDS011;25977;45.462;9.210;2023-05-07T03:47:51;0.70;;;0.70;;
40256;SDS011;25977;45.462;9.210;2023-05-07T03:50:19;4.13;;;0.90;;
40256;SDS011;25977;45.462;9.210;2023-05-07T03:52:45;1.55;;;0.65;;
40256;SDS011;25977;45.462;9.210;2023-05-07T03:55:11;0.70;;;0.70;;
40256;SDS011;25977;45.462;9.210;2023-05-07T03:57:41;0.65;;;0.65;;
40256;SDS011;25977;45.462;9.210;2023-05-07T04:00:06;0.70;;;0.70;;
40256;SDS011;25977;45.462;9.210;2023-05-07T04:02:45;3.38;;;0.52;;
40256;SDS011;25977;45.462;9.210;2023-05-07T04:05:12;1.00;;;0.82;;
40256;SDS011;25977;45.462;9.210;2023-05-07T04:07:40;0.70;;;0.70;;
40256;SDS011;25977;45.462;9.210;2023-05-07T04:10:07;0.60;;;0.60;;
40256;SDS011;25977;45.462;9.210;2023-05-07T04:12:33;1.45;;;1.35;;
40256;SDS011;25977;45.462;9.210;2023-05-07T04:15:00;1.08;;;0.60;;
40256;SDS011;25977;45.462;9.210;2023-05-07T04:17:26;0.60;;;0.60;;
40256;SDS011;25977;45.462;9.210;2023-05-07T04:19:52;0.77;;;0.70;;
40256;SDS011;25977;45.462;9.210;2023-05-07T04:22:18;1.10;;;0.63;;
40256;SDS011;25977;45.462;9.210;2023-05-07T04:24:44;0.50;;;0.50;;
40256;SDS011;25977;45.462;9.210;2023-05-07T04:27:11;4.68;;;0.70;;
40256;SDS011;25977;45.462;9.210;2023-05-07T04:29:38;1.00;;;0.40;;
40256;SDS011;25977;45.462;9.210;2023-05-07T04:32:09;2.63;;;0.88;;
40256;SDS011;25977;45.462;9.210;2023-05-07T04:34:37;0.50;;;0.50;;
40256;SDS011;25977;45.462;9.210;2023-05-07T04:37:03;0.50;;;0.50;;
40256;SDS011;25977;45.462;9.210;2023-05-07T04:39:29;0.52;;;0.52;;
40256;SDS011;25977;45.462;9.210;2023-05-07T04:41:55;0.60;;;0.60;;
40256;SDS011;25977;45.462;9.210;2023-05-07T04:44:22;1.85;;;0.95;;
40256;SDS011;25977;45.462;9.210;2023-05-07T04:46:48;0.60;;;0.30;;
40256;SDS011;25977;45.462;9.210;2023-05-07T04:49:13;0.60;;;0.47;;
40256;SDS011;25977;45.462;9.210;2023-05-07T04:51:39;0.70;;;0.40;;
40256;SDS011;25977;45.462;9.210;2023-05-07T04:54:09;2.25;;;0.50;;
40256;SDS011;25977;45.462;9.210;2023-05-07T04:56:35;0.82;;;0.50;;
40256;SDS011;25977;45.462;9.210;2023-05-07T04:59:02;0.75;;;0.73;;
40256;SDS011;25977;45.462;9.210;2023-05-07T05:01:29;1.27;;;0.68;;
40256;SDS011;25977;45.462;9.210;2023-05-07T05:03:54;0.70;;;0.70;;
40256;SDS011;25977;45.462;9.210;2023-05-07T05:06:20;0.50;;;0.50;;
40256;SDS011;25977;45.462;9.210;2023-05-07T05:08:46;0.65;;;0.65;;
40256;SDS011;25977;45.462;9.210;2023-05-07T05:11:11;1.30;;;1.13;;
40256;SDS011;25977;45.462;9.210;2023-05-07T05:13:38;1.83;;;0.50;;
40256;SDS011;25977;45.462;9.210;2023-05-07T05:16:10;0.55;;;0.55;;
40256;SDS011;25977;45.462;9.210;2023-05-07T05:18:36;0.90;;;0.90;;
40256;SDS011;25977;45.462;9.210;2023-05-07T05:21:03;2.35;;;0.52;;
40256;SDS011;25977;45.462;9.210;2023-05-07T05:23:30;0.88;;;0.60;;
40256;SDS011;25977;45.462;9.210;2023-05-07T05:25:56;3.20;;;0.77;;
40256;SDS011;25977;45.462;9.210;2023-05-07T05:28:24;1.95;;;0.77;;
40256;SDS011;25977;45.462;9.210;2023-05-07T05:30:50;0.85;;;0.75;;
40256;SDS011;25977;45.462;9.210;2023-05-07T05:33:16;5.18;;;1.60;;
40256;SDS011;25977;45.462;9.210;2023-05-07T05:35:42;0.63;;;0.63;;
40256;SDS011;25977;45.462;9.210;2023-05-07T05:38:10;0.52;;;0.52;;
40256;SDS011;25977;45.462;9.210;2023-05-07T05:40:37;0.68;;;0.50;;
40256;SDS011;25977;45.462;9.210;2023-05-07T05:43:03;1.63;;;0.57;;
40256;SDS011;25977;45.462;9.210;2023-05-07T05:45:29;1.33;;;0.47;;
40256;SDS011;25977;45.462;9.210;2023-05-07T05:47:56;2.40;;;0.90;;
40256;SDS011;25977;45.462;9.210;2023-05-07T05:50:22;0.60;;;0.60;;
40256;SDS011;25977;45.462;9.210;2023-05-07T05:52:48;2.55;;;0.80;;
40256;SDS011;25977;45.462;9.210;2023-05-07T05:55:15;2.42;;;0.60;;
40256;SDS011;25977;45.462;9.210;2023-05-07T05:57:41;2.40;;;0.70;;
40256;SDS011;25977;45.462;9.210;2023-05-07T06:00:08;4.30;;;0.70;;
40256;SDS011;25977;45.462;9.210;2023-05-07T06:02:43;0.50;;;0.50;;
40256;SDS011;25977;45.462;9.210;2023-05-07T06:05:11;0.60;;;0.60;;
40256;SDS011;25977;45.462;9.210;2023-05-07T06:07:37;1.02;;;0.50;;
40256;SDS011;25977;45.462;9.210;2023-05-07T06:10:03;1.08;;;0.82;;
40256;SDS011;25977;45.462;9.210;2023-05-07T06:12:31;1.33;;;0.82;;
40256;SDS011;25977;45.462;9.210;2023-05-07T06:14:57;0.45;;;0.45;;
40256;SDS011;25977;45.462;9.210;2023-05-07T06:17:23;0.30;;;0.30;;
40256;SDS011;25977;45.462;9.210;2023-05-07T06:19:49;0.77;;;0.75;;
40256;SDS011;25977;45.462;9.210;2023-05-07T06:22:18;0.70;;;0.50;;
40256;SDS011;25977;45.462;9.210;2023-05-07T06:24:44;0.50;;;0.50;;
40256;SDS011;25977;45.462;9.210;2023-05-07T06:27:09;3.70;;;0.70;;
40256;SDS011;25977;45.462;9.210;2023-05-07T06:29:36;0.68;;;0.68;;
40256;SDS011;25977;45.462;9.210;2023-05-07T06:32:11;0.80;;;0.80;;
40256;SDS011;25977;45.462;9.210;2023-05-07T06:34:40;0.63;;;0.63;;
40256;SDS011;25977;45.462;9.210;2023-05-07T06:37:06;1.63;;;1.23;;
40256;SDS011;25977;45.462;9.210;2023-05-07T06:39:58;0.80;;;0.80;;
40256;SDS011;25977;45.462;9.210;2023-05-07T06:42:24;0.60;;;0.60;;
40256;SDS011;25977;45.462;9.210;2023-05-07T06:44:56;1.08;;;0.40;;
40256;SDS011;25977;45.462;9.210;2023-05-07T06:47:22;0.52;;;0.52;;
40256;SDS011;25977;45.462;9.210;2023-05-07T06:49:51;1.30;;;0.75;;
40256;SDS011;25977;45.462;9.210;2023-05-07T06:52:19;0.60;;;0.60;;
40256;SDS011;25977;45.462;9.210;2023-05-07T06:54:47;4.43;;;0.60;;
40256;SDS011;25977;45.462;9.210;2023-05-07T06:57:15;0.40;;;0.40;;
40256;SDS011;25977;45.462;9.210;2023-05-07T06:59:41;2.67;;;1.17;;
40256;SDS011;25977;45.462;9.210;2023-05-07T07:02:07;0.70;;;0.70;;
40256;SDS011;25977;45.462;9.210;2023-05-07T07:04:34;0.52;;;0.52;;
40256;SDS011;25977;45.462;9.210;2023-05-07T07:07:04;0.60;;;0.57;;
40256;SDS011;25977;45.462;9.210;2023-05-07T07:09:30;0.40;;;0.40;;
40256;SDS011;25977;45.462;9.210;2023-05-07T07:11:57;0.70;;;0.50;;
40256;SDS011;25977;45.462;9.210;2023-05-07T07:14:23;1.35;;;0.80;;
40256;SDS011;25977;45.462;9.210;2023-05-07T07:16:50;1.27;;;0.80;;
40256;SDS011;25977;45.462;9.210;2023-05-07T07:19:19;0.70;;;0.70;;
40256;SDS011;25977;45.462;9.210;2023-05-07T07:21:47;1.77;;;0.68;;
40256;SDS011;25977;45.462;9.210;2023-05-07T07:24:13;0.75;;;0.57;;
40256;SDS011;25977;45.462;9.210;2023-05-07T07:26:44;2.28;;;0.95;;
40256;SDS011;25977;45.462;9.210;2023-05-07T07:29:11;0.60;;;0.60;;
40256;SDS011;25977;45.462;9.210;2023-05-07T07:31:37;0.40;;;0.40;;
40256;SDS011;25977;45.462;9.210;2023-05-07T07:34:03;4.53;;;0.70;;
40256;SDS011;25977;45.462;9.210;2023-05-07T07:36:28;0.70;;;0.70;;
40256;SDS011;25977;45.462;9.210;2023-05-07T07:38:55;1.10;;;0.50;;
40256;SDS011;25977;45.462;9.210;2023-05-07T07:41:21;1.40;;;1.30;;
40256;SDS011;25977;45.462;9.210;2023-05-07T07:43:47;0.65;;;0.65;;
40256;SDS011;25977;45.462;9.210;2023-05-07T07:46:13;0.68;;;0.57;;
40256;SDS011;25977;45.462;9.210;2023-05-07T07:48:39;0.90;;;0.63;;
40256;SDS011;25977;45.462;9.210;2023-05-07T07:51:05;1.02;;;0.60;;
40256;SDS011;25977;45.462;9.210;2023-05-07T07:53:31;0.68;;;0.52;;
40256;SDS011;25977;45.462;9.210;2023-05-07T07:55:57;2.50;;;0.63;;
40256;SDS011;25977;45.462;9.210;2023-05-07T07:58:25;1.27;;;0.82;;
40256;SDS011;25977;45.462;9.210;2023-05-07T08:00:52;1.88;;;0.70;;
40256;SDS011;25977;45.462;9.210;2023-05-07T08:03:21;2.38;;;0.50;;
40256;SDS011;25977;45.462;9.210;2023-05-07T08:05:51;0.70;;;0.50;;
40256;SDS011;25977;45.462;9.210;2023-05-07T08:08:17;1.35;;;0.80;;
40256;SDS011;25977;45.462;9.210;2023-05-07T08:10:42;1.55;;;0.80;;
40256;SDS011;25977;45.462;9.210;2023-05-07T08:13:17;0.73;;;0.68;;
40256;SDS011;25977;45.462;9.210;2023-05-07T08:15:43;1.98;;;0.85;;
40256;SDS011;25977;45.462;9.210;2023-05-07T08:18:10;1.08;;;0.60;;
40256;SDS011;25977;45.462;9.210;2023-05-07T08:20:37;1.48;;;0.80;;
40256;SDS011;25977;45.462;9.210;2023-05-07T08:23:05;0.70;;;0.70;;
40256;SDS011;25977;45.462;9.210;2023-05-07T08:25:33;0.80;;;0.80;;
40256;SDS011;25977;45.462;9.210;2023-05-07T08:27:59;0.60;;;0.60;;
40256;SDS011;25977;45.462;9.210;2023-05-07T08:30:25;1.85;;;0.85;;
40256;SDS011;25977;45.462;9.210;2023-05-07T08:32:52;0.75;;;0.73;;
40256;SDS011;25977;45.462;9.210;2023-05-07T08:35:18;0.80;;;0.80;;
40256;SDS011;25977;45.462;9.210;2023-05-07T08:37:43;0.80;;;0.80;;
40256;SDS011;25977;45.462;9.210;2023-05-07T08:40:10;0.93;;;0.82;;
40256;SDS011;25977;45.462;9.210;2023-05-07T08:42:36;0.57;;;0.57;;
40256;SDS011;25977;45.462;9.210;2023-05-07T08:45:07;0.80;;;0.50;;
40256;SDS011;25977;45.462;9.210;2023-05-07T08:47:58;0.70;;;0.70;;
40256;SDS011;25977;45.462;9.210;2023-05-07T08:50:31;5.00;;;0.60;;
40256;SDS011;25977;45.462;9.210;2023-05-07T08:53:00;1.27;;;1.17;;
40256;SDS011;25977;45.462;9.210;2023-05-07T08:55:28;0.73;;;0.68;;
40256;SDS011;25977;45.462;9.210;2023-05-07T08:57:54;0.95;;;0.80;;
40256;SDS011;25977;45.462;9.210;2023-05-07T09:00:20;1.65;;;0.73;;
40256;SDS011;25977;45.462;9.210;2023-05-07T09:02:49;1.85;;;0.82;;
40256;SDS011;25977;45.462;9.210;2023-05-07T09:05:15;1.60;;;1.10;;
40256;SDS011;25977;45.462;9.210;2023-05-07T09:07:41;1.85;;;1.35;;
40256;SDS011;25977;45.462;9.210;2023-05-07T09:10:08;0.98;;;0.98;;
40256;SDS011;25977;45.462;9.210;2023-05-07T09:12:37;0.90;;;0.90;;
40256;SDS011;25977;45.462;9.210;2023-05-07T09:15:05;2.40;;;1.33;;
40256;SDS011;25977;45.462;9.210;2023-05-07T09:17:32;1.60;;;1.02;;
40256;SDS011;25977;45.462;9.210;2023-05-07T09:20:04;2.22;;;1.10;;
40256;SDS011;25977;45.462;9.210;2023-05-07T09:22:32;0.90;;;0.90;;
40256;SDS011;25977;45.462;9.210;2023-05-07T09:25:02;2.03;;;1.45;;
40256;SDS011;25977;45.462;9.210;2023-05-07T09:27:29;2.15;;;1.23;;
40256;SDS011;25977;45.462;9.210;2023-05-07T09:29:57;1.30;;;0.70;;
40256;SDS011;25977;45.462;9.210;2023-05-07T09:32:23;0.93;;;0.85;;
40256;SDS011;25977;45.462;9.210;2023-05-07T09:34:50;2.25;;;0.90;;
40256;SDS011;25977;45.462;9.210;2023-05-07T09:37:22;0.90;;;0.90;;
40256;SDS011;25977;45.462;9.210;2023-05-07T09:39:48;1.45;;;1.02;;
40256;SDS011;25977;45.462;9.210;2023-05-07T09:42:22;0.75;;;0.75;;
40256;SDS011;25977;45.462;9.210;2023-05-07T09:44:50;0.80;;;0.80;;
40256;SDS011;25977;45.462;9.210;2023-05-07T09:47:19;1.42;;;1.33;;
40256;SDS011;25977;45.462;9.210;2023-05-07T09:49:50;1.10;;;0.60;;
40256;SDS011;25977;45.462;9.210;2023-05-07T09:52:21;1.48;;;1.00;;
40256;SDS011;25977;45.462;9.210;2023-05-07T09:54:51;1.08;;;1.00;;
40256;SDS011;25977;45.462;9.210;2023-05-07T09:57:21;1.30;;;1.20;;
40256;SDS011;25977;45.462;9.210;2023-05-07T09:59:53;1.55;;;1.17;;
40256;SDS011;25977;45.462;9.210;2023-05-07T10:02:22;1.90;;;1.20;;
40256;SDS011;25977;45.462;9.210;2023-05-07T10:04:52;1.50;;;1.10;;
40256;SDS011;25977;45.462;9.210;2023-05-07T10:07:24;1.58;;;1.40;;
40256;SDS011;25977;45.462;9.210;2023-05-07T10:09:54;1.17;;;1.10;;
40256;SDS011;25977;45.462;9.210;2023-05-07T10:12:31;1.70;;;1.60;;
40256;SDS011;25977;45.462;9.210;2023-05-07T10:15:10;1.20;;;1.10;;
40256;SDS011;25977;45.462;9.210;2023-05-07T10:17:38;1.58;;;1.10;;
40256;SDS011;25977;45.462;9.210;2023-05-07T10:20:06;1.38;;;1.27;;
40256;SDS011;25977;45.462;9.210;2023-05-07T10:22:43;1.45;;;1.35;;
40256;SDS011;25977;45.462;9.210;2023-05-07T10:25:18;1.73;;;1.48;;
40256;SDS011;25977;45.462;9.210;2023-05-07T10:27:51;2.15;;;1.33;;
40256;SDS011;25977;45.462;9.210;2023-05-07T10:30:26;1.08;;;1.08;;
40256;SDS011;25977;45.462;9.210;2023-05-07T10:33:11;1.35;;;0.98;;
40256;SDS011;25977;45.462;9.210;2023-05-07T10:35:43;1.33;;;1.30;;
40256;SDS011;25977;45.462;9.210;2023-05-07T10:38:11;2.30;;;1.30;;
40256;SDS011;25977;45.462;9.210;2023-05-07T10:40:39;1.20;;;1.08;;
40256;SDS011;25977;45.462;9.210;2023-05-07T10:43:06;1.10;;;1.00;;
40256;SDS011;25977;45.462;9.210;2023-05-07T10:45:38;1.00;;;1.00;;
40256;SDS011;25977;45.462;9.210;2023-05-07T10:48:05;1.65;;;1.08;;
40256;SDS011;25977;45.462;9.210;2023-05-07T10:50:37;3.67;;;1.33;;
40256;SDS011;25977;45.462;9.210;2023-05-07T10:56:07;1.33;;;1.23;;
40256;SDS011;25977;45.462;9.210;2023-05-07T10:58:49;1.52;;;1.08;;
40256;SDS011;25977;45.462;9.210;2023-05-07T11:01:48;2.28;;;0.90;;
40256;SDS011;25977;45.462;9.210;2023-05-07T11:04:44;3.40;;;1.45;;
40256;SDS011;25977;45.462;9.210;2023-05-07T11:07:27;1.08;;;1.02;;
40256;SDS011;25977;45.462;9.210;2023-05-07T11:09:59;1.40;;;1.30;;
40256;SDS011;25977;45.462;9.210;2023-05-07T11:15:16;1.40;;;1.30;;
40256;SDS011;25977;45.462;9.210;2023-05-07T11:18:16;1.05;;;1.00;;
40256;SDS011;25977;45.462;9.210;2023-05-07T11:20:45;1.80;;;1.30;;
40256;SDS011;25977;45.462;9.210;2023-05-07T11:26:18;2.55;;;1.30;;
40256;SDS011;25977;45.462;9.210;2023-05-07T11:28:45;1.25;;;1.23;;
40256;SDS011;25977;45.462;9.210;2023-05-07T11:31:11;1.17;;;1.13;;
40256;SDS011;25977;45.462;9.210;2023-05-07T11:33:38;1.20;;;1.17;;
40256;SDS011;25977;45.462;9.210;2023-05-07T11:36:07;1.50;;;1.40;;
40256;SDS011;25977;45.462;9.210;2023-05-07T11:38:39;1.30;;;1.30;;
40256;SDS011;25977;45.462;9.210;2023-05-07T11:41:05;1.25;;;1.25;;
40256;SDS011;25977;45.462;9.210;2023-05-07T11:43:32;1.52;;;1.42;;
40256;SDS011;25977;45.462;9.210;2023-05-07T11:46:04;1.73;;;1.63;;
40256;SDS011;25977;45.462;9.210;2023-05-07T11:48:35;1.20;;;1.20;;
40256;SDS011;25977;45.462;9.210;2023-05-07T11:51:02;1.20;;;1.10;;
40256;SDS011;25977;45.462;9.210;2023-05-07T11:53:39;2.17;;;1.13;;
40256;SDS011;25977;45.462;9.210;2023-05-07T11:56:07;1.20;;;1.00;;
40256;SDS011;25977;45.462;9.210;2023-05-07T11:58:34;2.17;;;1.17;;
40256;SDS011;25977;45.462;9.210;2023-05-07T12:01:00;2.85;;;1.25;;
40256;SDS011;25977;45.462;9.210;2023-05-07T12:03:26;1.20;;;1.20;;
40256;SDS011;25977;45.462;9.210;2023-05-07T12:05:51;1.77;;;1.67;;
40256;SDS011;25977;45.462;9.210;2023-05-07T12:08:18;1.65;;;1.45;;
40256;SDS011;25977;45.462;9.210;2023-05-07T12:10:46;3.53;;;1.98;;
40256;SDS011;25977;45.462;9.210;2023-05-07T12:13:15;2.38;;;1.10;;
40256;SDS011;25977;45.462;9.210;2023-05-07T12:15:42;1.25;;;1.25;;
40256;SDS011;25977;45.462;9.210;2023-05-07T12:18:08;2.05;;;1.23;;
40256;SDS011;25977;45.462;9.210;2023-05-07T12:20:35;2.42;;;1.27;;
40256;SDS011;25977;45.462;9.210;2023-05-07T12:23:01;2.05;;;1.55;;
40256;SDS011;25977;45.462;9.210;2023-05-07T12:25:31;2.13;;;0.98;;
40256;SDS011;25977;45.462;9.210;2023-05-07T12:27:57;0.80;;;0.80;;
40256;SDS011;25977;45.462;9.210;2023-05-07T12:30:25;2.45;;;0.88;;
40256;SDS011;25977;45.462;9.210;2023-05-07T12:32:54;3.13;;;1.35;;
40256;SDS011;25977;45.462;9.210;2023-05-07T12:35:26;1.90;;;1.00;;
40256;SDS011;25977;45.462;9.210;2023-05-07T12:37:59;1.80;;;1.30;;
40256;SDS011;25977;45.462;9.210;2023-05-07T12:40:35;2.20;;;1.35;;
40256;SDS011;25977;45.462;9.210;2023-05-07T12:43:03;1.15;;;1.10;;
40256;SDS011;25977;45.462;9.210;2023-05-07T12:45:28;1.08;;;0.98;;
40256;SDS011;25977;45.462;9.210;2023-05-07T12:47:54;1.17;;;1.17;;
40256;SDS011;25977;45.462;9.210;2023-05-07T12:50:20;1.95;;;1.55;;
40256;SDS011;25977;45.462;9.210;2023-05-07T12:52:48;0.70;;;0.70;;
40256;SDS011;25977;45.462;9.210;2023-05-07T12:55:15;1.60;;;1.02;;
40256;SDS011;25977;45.462;9.210;2023-05-07T12:57:41;1.40;;;1.13;;
40256;SDS011;25977;45.462;9.210;2023-05-07T13:00:08;1.60;;;1.20;;
40256;SDS011;25977;45.462;9.210;2023-05-07T13:02:37;0.90;;;0.90;;
40256;SDS011;25977;45.462;9.210;2023-05-07T13:05:04;1.00;;;1.00;;
40256;SDS011;25977;45.462;9.210;2023-05-07T13:07:30;3.35;;;0.90;;
40256;SDS011;25977;45.462;9.210;2023-05-07T13:09:56;7.50;;;2.17;;
40256;SDS011;25977;45.462;9.210;2023-05-07T13:12:21;2.35;;;1.00;;
40256;SDS011;25977;45.462;9.210;2023-05-07T13:14:47;3.05;;;1.15;;
40256;SDS011;25977;45.462;9.210;2023-05-07T13:17:12;2.60;;;1.30;;
40256;SDS011;25977;45.462;9.210;2023-05-07T13:19:38;3.55;;;0.90;;
40256;SDS011;25977;45.462;9.210;2023-05-07T13:22:04;2.38;;;0.90;;
40256;SDS011;25977;45.462;9.210;2023-05-07T13:24:30;0.98;;;0.98;;
40256;SDS011;25977;45.462;9.210;2023-05-07T13:26:59;1.15;;;1.05;;
40256;SDS011;25977;45.462;9.210;2023-05-07T13:29:24;1.00;;;0.95;;
40256;SDS011;25977;45.462;9.210;2023-05-07T13:31:54;2.50;;;1.00;;
40256;SDS011;25977;45.462;9.210;2023-05-07T13:34:20;1.13;;;1.10;;
40256;SDS011;25977;45.462;9.210;2023-05-07T13:36:45;1.30;;;1.08;;
40256;SDS011;25977;45.462;9.210;2023-05-07T13:39:11;0.90;;;0.90;;
40256;SDS011;25977;45.462;9.210;2023-05-07T13:41:37;0.70;;;0.70;;
40256;SDS011;25977;45.462;9.210;2023-05-07T13:44:02;1.23;;;1.13;;
40256;SDS011;25977;45.462;9.210;2023-05-07T13:46:28;0.77;;;0.77;;
40256;SDS011;25977;45.462;9.210;2023-05-07T13:48:55;0.85;;;0.80;;
40256;SDS011;25977;45.462;9.210;2023-05-07T13:51:20;0.80;;;0.77;;
40256;SDS011;25977;45.462;9.210;2023-05-07T13:53:47;1.17;;;1.08;;
40256;SDS011;25977;45.462;9.210;2023-05-07T13:56:13;1.20;;;0.90;;
40256;SDS011;25977;45.462;9.210;2023-05-07T13:58:39;1.20;;;1.10;;
40256;SDS011;25977;45.462;9.210;2023-05-07T14:01:05;1.05;;;1.02;;
40256;SDS011;25977;45.462;9.210;2023-05-07T14:03:31;1.60;;;1.05;;
40256;SDS011;25977;45.462;9.210;2023-05-07T14:05:58;3.05;;;1.00;;
40256;SDS011;25977;45.462;9.210;2023-05-07T14:08:25;0.90;;;0.90;;
40256;SDS011;25977;45.462;9.210;2023-05-07T14:10:51;2.15;;;0.90;;
40256;SDS011;25977;45.462;9.210;2023-05-07T14:13:16;1.20;;;1.00;;
40256;SDS011;25977;45.462;9.210;2023-05-07T14:15:42;0.82;;;0.82;;
40256;SDS011;25977;45.462;9.210;2023-05-07T14:18:11;0.65;;;0.65;;
40256;SDS011;25977;45.462;9.210;2023-05-07T14:20:37;1.63;;;1.08;;
40256;SDS011;25977;45.462;9.210;2023-05-07T14:23:03;1.40;;;0.95;;
40256;SDS011;25977;45.462;9.210;2023-05-07T14:25:29;2.10;;;1.00;;
40256;SDS011;25977;45.462;9.210;2023-05-07T14:27:55;1.10;;;0.80;;
40256;SDS011;25977;45.462;9.210;2023-05-07T14:30:21;1.88;;;1.10;;
40256;SDS011;25977;45.462;9.210;2023-05-07T14:32:49;1.17;;;1.17;;
40256;SDS011;25977;45.462;9.210;2023-05-07T14:35:15;1.55;;;1.45;;
40256;SDS011;25977;45.462;9.210;2023-05-07T14:37:41;1.73;;;0.90;;
40256;SDS011;25977;45.462;9.210;2023-05-07T14:40:07;0.80;;;0.80;;
40256;SDS011;25977;45.462;9.210;2023-05-07T14:42:34;0.95;;;0.95;;
40256;SDS011;25977;45.462;9.210;2023-05-07T14:45:00;0.68;;;0.68;;
40256;SDS011;25977;45.462;9.210;2023-05-07T14:47:25;1.00;;;1.00;;
40256;SDS011;25977;45.462;9.210;2023-05-07T14:49:51;1.58;;;0.98;;
40256;SDS011;25977;45.462;9.210;2023-05-07T14:52:18;1.02;;;0.75;;
40256;SDS011;25977;45.462;9.210;2023-05-07T14:54:43;0.85;;;0.85;;
40256;SDS011;25977;45.462;9.210;2023-05-07T14:57:10;0.85;;;0.70;;
40256;SDS011;25977;45.462;9.210;2023-05-07T14:59:38;0.88;;;0.88;;